Terminal Aerodrome Forecast
Issued by NWS

Home | Current Version | Previous Version | Text Only | Print | Product List | Glossary On
Versions: 1 2 3 4 5 6 7 8 9 10 11 12 13 14 15 16 17 18
000
FTUS43 KICT 291122
TAFRSL
TAF
KRSL 291122Z 2912/3012 04007KT P6SM BKN050 BKN100
     FM292100 03020G28KT P6SM VCSH SCT010 BKN030
     FM292300 03020G28KT 3SM -SN BR SCT007 BKN015=

USA.gov is the U.S. government's official web portal to all federal, state and local government web resources and services.